createdAt,value
2019-03-18T00:00:13.035Z,1012
2019-03-18T00:01:13.048Z,1012
2019-03-18T00:02:13.073Z,1012
2019-03-18T00:03:13.089Z,1012.2
2019-03-18T00:04:13.070Z,1012.1
2019-03-18T00:05:13.047Z,1012.1
2019-03-18T00:06:13.104Z,1012.1
2019-03-18T00:07:13.059Z,1012
2019-03-18T00:08:13.089Z,1012.1
2019-03-18T00:09:13.170Z,1012.2
2019-03-18T00:10:13.105Z,1012.1
2019-03-18T00:11:13.097Z,1012
2019-03-18T00:12:13.116Z,1012.1
2019-03-18T00:13:13.121Z,1012.1
2019-03-18T00:14:13.140Z,1012.2
2019-03-18T00:15:13.159Z,1012.2
2019-03-18T00:16:13.156Z,1012.1
2019-03-18T00:17:13.127Z,1012.1
2019-03-18T00:18:13.147Z,1012.1
2019-03-18T00:19:13.146Z,1012
2019-03-18T00:20:13.129Z,1012.1
2019-03-18T00:21:13.147Z,1012.1
2019-03-18T00:22:13.212Z,1012.1
2019-03-18T00:23:13.150Z,1012.2
2019-03-18T00:24:13.155Z,1012.2
2019-03-18T00:25:13.305Z,1012.2
2019-03-18T00:26:13.153Z,1012.3
2019-03-18T00:27:13.244Z,1012.3
2019-03-18T00:28:13.166Z,1012.3
2019-03-18T00:29:13.184Z,1012.3
2019-03-18T00:30:13.161Z,1012.5
2019-03-18T00:31:15.447Z,1012.4
2019-03-18T00:32:13.289Z,1012.4
2019-03-18T00:33:13.222Z,1012.5
2019-03-18T00:34:13.315Z,1012.5
2019-03-18T00:35:13.219Z,1012.5
2019-03-18T00:36:13.206Z,1012.5
2019-03-18T00:37:13.266Z,1012.6
2019-03-18T00:38:13.221Z,1012.6
2019-03-18T00:39:13.232Z,1012.8
2019-03-18T00:40:13.231Z,1012.8
2019-03-18T00:41:13.263Z,1012.7
2019-03-18T00:42:13.244Z,1012.5
2019-03-18T00:43:13.303Z,1012.6
2019-03-18T00:44:13.259Z,1012.6
2019-03-18T00:45:14.966Z,1012.7
2019-03-18T00:46:13.297Z,1012.6
2019-03-18T00:47:13.235Z,1012.6
2019-03-18T00:48:13.248Z,1012.6
2019-03-18T00:49:13.277Z,1012.7
2019-03-18T00:50:13.261Z,1012.5
2019-03-18T00:51:13.277Z,1012.7
2019-03-18T00:52:13.318Z,1012.6
2019-03-18T00:53:13.252Z,1012.6
2019-03-18T00:54:13.279Z,1012.6
2019-03-18T00:55:13.298Z,1012.5
2019-03-18T00:56:13.276Z,1012.7
2019-03-18T00:57:13.333Z,1012.6
2019-03-18T00:58:13.296Z,1012.5
2019-03-18T00:59:13.286Z,1012.6
2019-03-18T01:00:13.421Z,1012.6
2019-03-18T01:01:13.344Z,1012.6
2019-03-18T01:02:13.382Z,1012.6
2019-03-18T01:03:13.346Z,1012.6
2019-03-18T01:04:14.029Z,1012.6
2019-03-18T01:05:13.411Z,1012.5
2019-03-18T01:06:13.394Z,1012.5
2019-03-18T01:07:13.411Z,1012.6
2019-03-18T01:08:13.380Z,1012.5
2019-03-18T01:09:13.403Z,1012.5
2019-03-18T01:10:13.427Z,1012.5
2019-03-18T01:11:13.416Z,1012.4
2019-03-18T01:12:13.410Z,1012.4
2019-03-18T01:13:13.485Z,1012.4
2019-03-18T01:14:13.457Z,1012.4
2019-03-18T01:15:13.420Z,1012.4
2019-03-18T01:16:13.523Z,1012.4
2019-03-18T01:17:13.450Z,1012.4
2019-03-18T01:18:13.476Z,1012.4
2019-03-18T01:19:13.434Z,1012.5
2019-03-18T01:20:13.465Z,1012.5
2019-03-18T01:21:14.505Z,1012.5
2019-03-18T01:22:13.519Z,1012.5
2019-03-18T01:23:13.474Z,1012.5
2019-03-18T01:24:13.493Z,1012.5
2019-03-18T01:25:13.548Z,1012.6
2019-03-18T01:26:13.535Z,1012.6
2019-03-18T01:27:13.508Z,1012.5
2019-03-18T01:28:13.522Z,1012.4
2019-03-18T01:29:13.540Z,1012.5
2019-03-18T01:30:13.564Z,1012.6
2019-03-18T01:31:13.536Z,1012.5
2019-03-18T01:32:13.596Z,1012.5
2019-03-18T01:33:13.578Z,1012.5
2019-03-18T01:34:13.616Z,1012.5
2019-03-18T01:35:13.625Z,1012.5
2019-03-18T01:36:13.547Z,1012.5
2019-03-18T01:37:13.567Z,1012.5
2019-03-18T01:38:13.589Z,1012.5
2019-03-18T01:39:13.563Z,1012.5
2019-03-18T01:40:13.608Z,1012.5
2019-03-18T01:41:13.599Z,1012.4
2019-03-18T01:42:16.557Z,1012.5
2019-03-18T01:43:13.635Z,1012.5
2019-03-18T01:44:13.580Z,1012.5
2019-03-18T01:45:13.639Z,1012.5
2019-03-18T01:46:13.618Z,1012.5
2019-03-18T01:47:13.581Z,1012.5
2019-03-18T01:48:13.598Z,1012.4
2019-03-18T01:49:13.619Z,1012.5
2019-03-18T01:50:13.641Z,1012.6
2019-03-18T01:51:13.742Z,1012.5
2019-03-18T01:52:13.672Z,1012.5
2019-03-18T01:53:13.651Z,1012.6
2019-03-18T01:54:13.660Z,1012.6
2019-03-18T01:55:13.660Z,1012.6
2019-03-18T01:56:13.663Z,1012.6
2019-03-18T01:57:13.687Z,1012.6
2019-03-18T01:58:13.738Z,1012.6
2019-03-18T01:59:13.685Z,1012.7
2019-03-18T02:00:13.641Z,1012.7
2019-03-18T02:01:13.687Z,1012.7
2019-03-18T02:02:13.660Z,1012.7
2019-03-18T02:03:13.652Z,1012.6
2019-03-18T02:04:13.688Z,1012.6
2019-03-18T02:05:13.697Z,1012.5
2019-03-18T02:06:13.727Z,1012.4
2019-03-18T02:07:13.739Z,1012.4
2019-03-18T02:08:13.787Z,1012.4
2019-03-18T02:09:13.769Z,1012.5
2019-03-18T02:10:13.780Z,1012.5
2019-03-18T02:11:13.766Z,1012.7
2019-03-18T02:12:13.797Z,1012.7
2019-03-18T02:13:13.800Z,1012.8
2019-03-18T02:14:13.803Z,1012.8
2019-03-18T02:15:13.859Z,1012.9
2019-03-18T02:16:13.818Z,1012.8
2019-03-18T02:17:13.893Z,1012.9
2019-03-18T02:18:13.840Z,1012.8
2019-03-18T02:19:13.879Z,1012.9
2019-03-18T02:20:13.954Z,1012.8
2019-03-18T02:21:13.884Z,1012.9
2019-03-18T02:22:13.898Z,1012.8
2019-03-18T02:23:13.923Z,1012.9
2019-03-18T02:24:13.949Z,1013
2019-03-18T02:25:13.935Z,1013
2019-03-18T02:26:13.920Z,1012.9
2019-03-18T02:27:13.987Z,1012.9
2019-03-18T02:28:13.975Z,1013
2019-03-18T02:29:13.980Z,1012.8
2019-03-18T02:30:14.042Z,1012.9
2019-03-18T02:31:14.100Z,1012.9
2019-03-18T02:32:14.088Z,1012.9
2019-03-18T02:33:14.160Z,1012.9
2019-03-18T02:34:14.083Z,1013
2019-03-18T02:35:14.161Z,1013
2019-03-18T02:36:14.214Z,1013
2019-03-18T02:37:14.101Z,1013.1
2019-03-18T02:38:14.130Z,1013.1
2019-03-18T02:39:14.185Z,1013
2019-03-18T02:40:14.227Z,1013.1
2019-03-18T02:41:14.206Z,1013.1
2019-03-18T02:42:14.203Z,1013.2
2019-03-18T02:43:14.304Z,1013.2
2019-03-18T02:44:14.267Z,1013.2
2019-03-18T02:45:14.260Z,1013.2
2019-03-18T02:46:14.275Z,1013.3
2019-03-18T02:47:14.290Z,1013.2
2019-03-18T02:48:14.360Z,1013.2
2019-03-18T02:49:14.338Z,1013.1
2019-03-18T02:50:14.324Z,1013.3
2019-03-18T02:51:14.402Z,1013.2
2019-03-18T02:52:14.368Z,1013.3
2019-03-18T02:53:14.546Z,1013.3
2019-03-18T02:54:14.399Z,1013.3
2019-03-18T02:55:14.398Z,1013.5
2019-03-18T02:56:14.387Z,1013.5
2019-03-18T02:57:14.423Z,1013.5
2019-03-18T02:58:14.462Z,1013.6
2019-03-18T02:59:14.467Z,1013.5
2019-03-18T03:00:14.470Z,1013.5
2019-03-18T03:01:14.518Z,1013.4
2019-03-18T03:02:14.505Z,1013.2
2019-03-18T03:03:14.539Z,1013.3
2019-03-18T03:04:14.525Z,1013.3
2019-03-18T03:05:14.566Z,1013.3
2019-03-18T03:06:14.586Z,1013.2
2019-03-18T03:07:14.556Z,1013.3
2019-03-18T03:08:14.582Z,1013.3
2019-03-18T03:09:14.606Z,1013.4
2019-03-18T03:10:14.790Z,1013.5
2019-03-18T03:11:14.625Z,1013.4
2019-03-18T03:12:14.623Z,1013.5
2019-03-18T03:13:14.701Z,1013.4
2019-03-18T03:14:14.683Z,1013.4
2019-03-18T03:15:14.850Z,1013.5
2019-03-18T03:16:25.955Z,1013.6
2019-03-18T03:17:14.693Z,1013.4
2019-03-18T03:18:14.707Z,1013.6
2019-03-18T03:19:14.780Z,1013.5
2019-03-18T03:20:14.750Z,1013.7
2019-03-18T03:21:14.791Z,1013.8
2019-03-18T03:22:14.907Z,1013.7
2019-03-18T03:23:14.789Z,1013.8
2019-03-18T03:24:14.808Z,1013.9
2019-03-18T03:25:14.892Z,1013.9
2019-03-18T03:26:14.812Z,1013.7
2019-03-18T03:27:14.819Z,1013.9
2019-03-18T03:28:14.887Z,1013.9
2019-03-18T03:29:14.871Z,1013.9
2019-03-18T03:30:15.050Z,1013.9
2019-03-18T03:31:14.866Z,1014
2019-03-18T03:32:14.964Z,1014
2019-03-18T03:33:14.927Z,1014
2019-03-18T03:34:14.986Z,1014
2019-03-18T03:35:15.052Z,1014
2019-03-18T03:36:17.397Z,1014
2019-03-18T03:37:15.054Z,1014.1
2019-03-18T03:38:14.961Z,1014
2019-03-18T03:39:14.963Z,1014
2019-03-18T03:40:14.955Z,1014
2019-03-18T03:41:17.840Z,1013.9
2019-03-18T03:42:15.118Z,1013.8
2019-03-18T03:43:15.026Z,1013.9
2019-03-18T03:44:15.033Z,1013.9
2019-03-18T03:45:15.076Z,1013.9
2019-03-18T03:46:15.051Z,1013.9
2019-03-18T03:47:15.097Z,1014
2019-03-18T03:48:15.091Z,1014
2019-03-18T03:49:15.080Z,1014
2019-03-18T03:50:15.104Z,1014
2019-03-18T03:51:15.121Z,1014
2019-03-18T03:52:15.136Z,1014
2019-03-18T03:53:15.148Z,1014.1
2019-03-18T03:54:15.117Z,1014.1
2019-03-18T03:55:15.186Z,1014.1
2019-03-18T03:56:15.159Z,1014
2019-03-18T03:57:15.184Z,1014.1
2019-03-18T03:58:15.169Z,1014
2019-03-18T03:59:15.259Z,1014.3
2019-03-18T04:00:15.233Z,1014.1
2019-03-18T04:01:15.259Z,1014.1
2019-03-18T04:02:15.324Z,1014.2
2019-03-18T04:03:15.303Z,1014.1
2019-03-18T04:04:15.315Z,1014.1
2019-03-18T04:05:15.303Z,1014.1
2019-03-18T04:06:15.283Z,1014
2019-03-18T04:07:15.313Z,1014.2
2019-03-18T04:08:15.354Z,1014.2
2019-03-18T04:09:15.392Z,1014.2
2019-03-18T04:10:15.377Z,1014.3
2019-03-18T04:11:15.393Z,1014.3
2019-03-18T04:12:15.382Z,1014.4
2019-03-18T04:13:15.407Z,1014.4
2019-03-18T04:14:15.414Z,1014.3
2019-03-18T04:15:15.466Z,1014.2
2019-03-18T04:16:15.461Z,1014.2
2019-03-18T04:17:15.486Z,1014.2
2019-03-18T04:18:15.503Z,1014.2
2019-03-18T04:19:15.511Z,1014.2
2019-03-18T04:20:15.511Z,1014.3
2019-03-18T04:21:15.519Z,1014.4
2019-03-18T04:22:15.506Z,1014.4
2019-03-18T04:23:15.625Z,1014.4
2019-03-18T04:24:15.539Z,1014.6
2019-03-18T04:25:15.538Z,1014.7
2019-03-18T04:26:15.559Z,1014.5
2019-03-18T04:27:15.585Z,1014.6
2019-03-18T04:28:15.602Z,1014.6
2019-03-18T04:29:15.568Z,1014.5
2019-03-18T04:30:15.636Z,1014.5
2019-03-18T04:31:15.629Z,1014.5
2019-03-18T04:32:15.688Z,1014.5
2019-03-18T04:33:15.658Z,1014.6
2019-03-18T04:34:15.639Z,1014.7
2019-03-18T04:35:15.679Z,1014.6
2019-03-18T04:36:15.637Z,1014.6
2019-03-18T04:37:15.663Z,1014.7
2019-03-18T04:38:15.685Z,1014.8
2019-03-18T04:39:15.701Z,1014.7
2019-03-18T04:40:15.700Z,1014.8
2019-03-18T04:41:15.707Z,1014.8
2019-03-18T04:42:15.725Z,1014.9
2019-03-18T04:43:15.714Z,1014.8
2019-03-18T04:44:15.827Z,1014.9
2019-03-18T04:45:15.758Z,1014.8
2019-03-18T04:46:15.760Z,1014.8
2019-03-18T04:47:15.792Z,1014.8
2019-03-18T04:48:15.802Z,1014.9
2019-03-18T04:49:15.787Z,1014.9
2019-03-18T04:50:15.868Z,1014.9
2019-03-18T04:51:15.888Z,1014.9
2019-03-18T04:52:15.861Z,1015
2019-03-18T04:53:15.836Z,1014.9
2019-03-18T04:54:15.891Z,1015
2019-03-18T04:55:15.859Z,1015
2019-03-18T04:56:15.838Z,1015
2019-03-18T04:57:15.913Z,1014.9
2019-03-18T04:58:15.865Z,1015
2019-03-18T04:59:15.872Z,1014.9
2019-03-18T05:00:15.924Z,1015
2019-03-18T05:01:15.905Z,1015
2019-03-18T05:02:16.858Z,1015.1
2019-03-18T05:03:15.950Z,1015.1
2019-03-18T05:04:15.947Z,1015.1
2019-03-18T05:05:15.933Z,1015.2
2019-03-18T05:06:15.979Z,1015.2
2019-03-18T05:07:16.043Z,1015
2019-03-18T05:08:16.018Z,1015.2
2019-03-18T05:09:15.961Z,1015.2
2019-03-18T05:10:16.000Z,1015.2
2019-03-18T05:11:16.099Z,1015.2
2019-03-18T05:12:15.996Z,1015.2
2019-03-18T05:13:16.039Z,1015.3
2019-03-18T05:14:16.016Z,1015.3
2019-03-18T05:15:16.061Z,1015.2
2019-03-18T05:16:16.101Z,1015.3
2019-03-18T05:17:26.039Z,1015.3
2019-03-18T05:18:16.104Z,1015.2
2019-03-18T05:19:16.078Z,1015.2
2019-03-18T05:20:16.097Z,1015.2
2019-03-18T05:21:16.081Z,1015.3
2019-03-18T05:22:16.145Z,1015.3
2019-03-18T05:23:16.180Z,1015.3
2019-03-18T05:24:16.139Z,1015.3
2019-03-18T05:25:16.181Z,1015.2
2019-03-18T05:26:16.141Z,1015.3
2019-03-18T05:27:16.185Z,1015.3
2019-03-18T05:28:16.156Z,1015.3
2019-03-18T05:29:16.192Z,1015.3
2019-03-18T05:30:16.204Z,1015.3
2019-03-18T05:31:16.230Z,1015.2
2019-03-18T05:32:16.289Z,1015.2
2019-03-18T05:33:16.241Z,1015.2
2019-03-18T05:34:16.264Z,1015.2
2019-03-18T05:35:16.268Z,1015.1
2019-03-18T05:36:16.340Z,1015
2019-03-18T05:37:16.300Z,1015.1
2019-03-18T05:38:16.277Z,1015.1
2019-03-18T05:39:16.311Z,1015.1
2019-03-18T05:40:16.311Z,1015
2019-03-18T05:41:16.338Z,1015
2019-03-18T05:42:16.350Z,1015.1
2019-03-18T05:43:16.346Z,1015
2019-03-18T05:44:16.331Z,1015.1
2019-03-18T05:45:16.334Z,1015.1
2019-03-18T05:46:16.353Z,1015.1
2019-03-18T05:47:16.359Z,1015
2019-03-18T05:48:16.898Z,1015
2019-03-18T05:49:16.432Z,1015
2019-03-18T05:50:16.371Z,1015
2019-03-18T05:51:16.518Z,1015
2019-03-18T05:52:16.427Z,1015.1
2019-03-18T05:53:16.421Z,1015.1
2019-03-18T05:54:16.386Z,1015.1
2019-03-18T05:55:16.380Z,1015.1
2019-03-18T05:56:16.438Z,1015.2
2019-03-18T05:57:16.408Z,1015.2
2019-03-18T05:58:16.608Z,1015.3
2019-03-18T05:59:16.426Z,1015.2
2019-03-18T06:00:17.502Z,1015.2
2019-03-18T06:01:16.478Z,1015.3
2019-03-18T06:02:16.513Z,1015.2
2019-03-18T06:03:16.471Z,1015.2
2019-03-18T06:04:16.473Z,1015.2
2019-03-18T06:05:16.449Z,1015.2
2019-03-18T06:06:16.447Z,1015.2
2019-03-18T06:07:16.614Z,1015.2
2019-03-18T06:08:16.531Z,1015
2019-03-18T06:09:16.503Z,1015.1
2019-03-18T06:10:16.516Z,1015.1
2019-03-18T06:11:16.542Z,1015.2
2019-03-18T06:12:16.521Z,1015.2
2019-03-18T06:13:16.521Z,1015.3
2019-03-18T06:14:16.577Z,1015.2
2019-03-18T06:15:16.537Z,1015.3
2019-03-18T06:16:16.529Z,1015.4
2019-03-18T06:17:16.541Z,1015.2
2019-03-18T06:18:16.545Z,1015.3
2019-03-18T06:19:16.566Z,1015.2
2019-03-18T06:20:16.547Z,1015.2
2019-03-18T06:21:16.648Z,1015.2
2019-03-18T06:22:16.556Z,1015.2
2019-03-18T06:23:16.594Z,1015.3
2019-03-18T06:24:16.612Z,1015.4
2019-03-18T06:25:16.625Z,1015.4
2019-03-18T06:26:16.594Z,1015.4
2019-03-18T06:27:16.582Z,1015.3
2019-03-18T06:28:16.588Z,1015.3
2019-03-18T06:29:16.616Z,1015.4
2019-03-18T06:30:16.621Z,1015.3
2019-03-18T06:31:16.663Z,1015.4
2019-03-18T06:32:16.682Z,1015.3
2019-03-18T06:33:16.634Z,1015.3
2019-03-18T06:34:16.640Z,1015.3
2019-03-18T06:35:16.634Z,1015.3
2019-03-18T06:36:17.284Z,1015.3
2019-03-18T06:37:16.635Z,1015.3
2019-03-18T06:38:16.650Z,1015.2
2019-03-18T06:39:16.662Z,1015.3
2019-03-18T06:40:16.693Z,1015.2
2019-03-18T06:41:16.715Z,1015.2
2019-03-18T06:42:18.622Z,1015.3
2019-03-18T06:43:16.768Z,1015.2
2019-03-18T06:44:16.680Z,1015.2
2019-03-18T06:45:16.712Z,1015.3
2019-03-18T06:46:16.751Z,1015.2
2019-03-18T06:47:16.762Z,1015.3
2019-03-18T06:48:16.730Z,1015.3
2019-03-18T06:49:16.714Z,1015.4
2019-03-18T06:50:16.727Z,1015.3
2019-03-18T06:51:16.724Z,1015.3
2019-03-18T06:52:16.721Z,1015.3
2019-03-18T06:53:16.740Z,1015.4
2019-03-18T06:54:16.754Z,1015.4
2019-03-18T06:55:16.717Z,1015.3
2019-03-18T06:56:16.718Z,1015.3
2019-03-18T06:57:16.791Z,1015.3
2019-03-18T06:58:16.790Z,1015.3
2019-03-18T06:59:16.835Z,1015.3
2019-03-18T07:00:16.780Z,1015.3
2019-03-18T07:01:16.754Z,1015.4
2019-03-18T07:02:16.748Z,1015.3
2019-03-18T07:03:16.741Z,1015.3
2019-03-18T07:04:16.813Z,1015.4
2019-03-18T07:05:16.801Z,1015.3
2019-03-18T07:06:16.771Z,1015.3
2019-03-18T07:07:16.832Z,1015.4
2019-03-18T07:08:16.769Z,1015.5
2019-03-18T07:09:16.772Z,1015.3
2019-03-18T07:10:16.792Z,1015.3
2019-03-18T07:11:16.772Z,1015.3
2019-03-18T07:12:17.793Z,1015.3
2019-03-18T07:13:16.821Z,1015.4
2019-03-18T07:14:16.792Z,1015.4
2019-03-18T07:15:16.802Z,1015.4
2019-03-18T07:16:16.836Z,1015.4
2019-03-18T07:17:16.815Z,1015.5
2019-03-18T07:18:18.425Z,1015.5
2019-03-18T07:19:16.817Z,1015.6
2019-03-18T07:20:16.866Z,1015.3
2019-03-18T07:21:16.781Z,1015.5
2019-03-18T07:22:17.370Z,1015.5
2019-03-18T07:23:16.814Z,1015.4
2019-03-18T07:24:16.807Z,1015.3
2019-03-18T07:25:16.928Z,1015.4
2019-03-18T07:26:16.877Z,1015.4
2019-03-18T07:27:16.966Z,1015.5
2019-03-18T07:28:18.090Z,1015.4
2019-03-18T07:29:16.844Z,1015.3
2019-03-18T07:30:16.848Z,1015.3
2019-03-18T07:31:16.837Z,1015.4
2019-03-18T07:32:16.891Z,1015.3
2019-03-18T07:33:17.025Z,1015.3
2019-03-18T07:34:16.891Z,1015.3
2019-03-18T07:35:17.023Z,1015.4
2019-03-18T07:36:16.851Z,1015.5
2019-03-18T07:37:16.887Z,1015.6
2019-03-18T07:38:16.881Z,1015.4
2019-03-18T07:39:16.948Z,1015.4
2019-03-18T07:40:16.958Z,1015.4
2019-03-18T07:41:16.895Z,1015.4
2019-03-18T07:42:16.876Z,1015.4
2019-03-18T07:43:16.892Z,1015.5
2019-03-18T07:44:16.875Z,1015.3
2019-03-18T07:45:16.943Z,1015.3
2019-03-18T07:46:16.876Z,1015.4
2019-03-18T07:47:16.942Z,1015.3
2019-03-18T07:48:16.921Z,1015.4
2019-03-18T07:49:16.916Z,1015.3
2019-03-18T07:50:16.942Z,1015.4
2019-03-18T07:51:16.950Z,1015.4
2019-03-18T07:52:16.931Z,1015.5
2019-03-18T07:53:18.249Z,1015.5
2019-03-18T07:54:31.785Z,1015.5
2019-03-18T07:55:16.902Z,1015.5
2019-03-18T07:56:16.960Z,1015.5
2019-03-18T07:57:16.945Z,1015.4
2019-03-18T07:58:16.928Z,1015.5
2019-03-18T07:59:16.933Z,1015.4
2019-03-18T08:00:16.984Z,1015.4
2019-03-18T08:01:16.985Z,1015.4
2019-03-18T08:02:16.922Z,1015.5
2019-03-18T08:03:16.966Z,1015.4
2019-03-18T08:04:16.989Z,1015.4
2019-03-18T08:05:17.014Z,1015.4
2019-03-18T08:06:17.023Z,1015.4
2019-03-18T08:07:16.944Z,1015.3
2019-03-18T08:08:16.998Z,1015.4
2019-03-18T08:09:16.945Z,1015.4
2019-03-18T08:10:16.976Z,1015.4
2019-03-18T08:11:16.997Z,1015.4
2019-03-18T08:12:16.956Z,1015.3
2019-03-18T08:13:17.009Z,1015.5
2019-03-18T08:14:16.959Z,1015.4
2019-03-18T08:15:16.991Z,1015.5
2019-03-18T08:16:16.981Z,1015.5
2019-03-18T08:17:16.996Z,1015.6
2019-03-18T08:18:17.071Z,1015.4
2019-03-18T08:19:17.064Z,1015.4
2019-03-18T08:20:17.024Z,1015.3
2019-03-18T08:21:16.999Z,1015.2
2019-03-18T08:22:17.013Z,1015.3
2019-03-18T08:23:17.018Z,1015.3
2019-03-18T08:24:17.032Z,1015.3
2019-03-18T08:25:17.019Z,1015.3
2019-03-18T08:26:17.033Z,1015.3
2019-03-18T08:27:17.025Z,1015.5
2019-03-18T08:28:17.057Z,1015.4
2019-03-18T08:29:17.066Z,1015.4
2019-03-18T08:30:17.024Z,1015.3
2019-03-18T08:31:17.027Z,1015.3
2019-03-18T08:32:17.097Z,1015.4
2019-03-18T08:33:17.059Z,1015.3
2019-03-18T08:34:17.060Z,1015.4
2019-03-18T08:35:17.101Z,1015.5
2019-03-18T08:36:17.293Z,1015.6
2019-03-18T08:37:17.196Z,1015.5
2019-03-18T08:38:17.148Z,1017.5
2019-03-18T08:39:17.083Z,1015.3
2019-03-18T08:40:17.117Z,1015.5
2019-03-18T08:41:17.086Z,1015.4
2019-03-18T08:42:17.096Z,1015.4
2019-03-18T08:43:17.095Z,1015.4
2019-03-18T08:44:17.175Z,1015.5
2019-03-18T08:45:17.229Z,1015.5
2019-03-18T08:46:17.087Z,1015.5
2019-03-18T08:47:17.123Z,1015.4
2019-03-18T08:48:17.164Z,1015.4
2019-03-18T08:49:17.130Z,1015.4
2019-03-18T08:50:17.172Z,1015.4
2019-03-18T08:51:17.172Z,1015.5
2019-03-18T08:52:17.173Z,1015.5
2019-03-18T08:53:17.202Z,1015.5
2019-03-18T08:54:17.219Z,1015.2
2019-03-18T08:55:17.325Z,1015.5
2019-03-18T08:56:17.229Z,1015.5
2019-03-18T08:57:17.216Z,1015.5
2019-03-18T08:58:17.231Z,1015.5
2019-03-18T08:59:17.325Z,1015.6
2019-03-18T09:00:17.375Z,1015.6
2019-03-18T09:01:17.282Z,1015.6
2019-03-18T09:02:17.313Z,1015.6
2019-03-18T09:03:17.291Z,1015.6
2019-03-18T09:04:17.324Z,1015.6
2019-03-18T09:05:17.302Z,1015.7
2019-03-18T09:06:17.316Z,1015.7
2019-03-18T09:07:17.354Z,1015.7
2019-03-18T09:08:17.341Z,1015.8
2019-03-18T09:09:17.389Z,1015.8
2019-03-18T09:10:17.362Z,1015.6
2019-03-18T09:11:17.465Z,1015.7
2019-03-18T09:12:17.430Z,1015.9
2019-03-18T09:13:17.382Z,1015.8
2019-03-18T09:14:17.410Z,1015.8
2019-03-18T09:15:18.423Z,1015.7
2019-03-18T09:16:18.424Z,1015.8
2019-03-18T09:17:17.437Z,1016
2019-03-18T09:18:17.496Z,1016
2019-03-18T09:19:17.539Z,1016
2019-03-18T09:20:17.464Z,1015.9
2019-03-18T09:21:17.423Z,1016
2019-03-18T09:22:17.457Z,1015.9
2019-03-18T09:23:17.445Z,1015.9
2019-03-18T09:24:17.461Z,1016
2019-03-18T09:25:17.503Z,1016
2019-03-18T09:26:17.499Z,1016.1
2019-03-18T09:27:17.468Z,1016
2019-03-18T09:28:17.514Z,1016
2019-03-18T09:29:17.506Z,1016
2019-03-18T09:30:17.554Z,1016
2019-03-18T09:31:17.551Z,1016.1
2019-03-18T09:32:17.590Z,1016.1
2019-03-18T09:33:17.586Z,1016.1
2019-03-18T09:34:18.626Z,1016.2
2019-03-18T09:35:17.778Z,1016.2
2019-03-18T09:36:17.821Z,1016.2
2019-03-18T09:37:17.542Z,1016.2
2019-03-18T09:38:17.623Z,1016.2
2019-03-18T09:39:17.592Z,1016.3
2019-03-18T09:40:17.758Z,1016.2
2019-03-18T09:41:17.571Z,1016.3
2019-03-18T09:42:18.228Z,1016.4
2019-03-18T09:43:17.613Z,1016.3
2019-03-18T09:44:17.627Z,1016.4
2019-03-18T09:45:17.640Z,1016.4
2019-03-18T09:46:17.614Z,1016.4
2019-03-18T09:47:17.625Z,1016.4
2019-03-18T09:48:17.625Z,1016.3
2019-03-18T09:49:21.764Z,1016.4
2019-03-18T09:50:17.659Z,1016.4
2019-03-18T09:51:17.638Z,1016.4
2019-03-18T09:52:17.641Z,1016.4
2019-03-18T09:53:17.681Z,1016.4
2019-03-18T09:54:17.680Z,1016.4
2019-03-18T09:55:17.664Z,1016.4
2019-03-18T09:56:17.666Z,1016.5
2019-03-18T09:57:25.675Z,1016.5
2019-03-18T09:58:17.662Z,1016.5
2019-03-18T09:59:17.673Z,1016.5
2019-03-18T10:00:17.729Z,1016.6
2019-03-18T10:01:19.951Z,1016.7
2019-03-18T10:02:17.865Z,1016.6
2019-03-18T10:03:17.726Z,1016.4
2019-03-18T10:04:17.695Z,1016.6
2019-03-18T10:05:17.703Z,1016.7
2019-03-18T10:06:17.789Z,1016.7
2019-03-18T10:07:20.305Z,1016.9
2019-03-18T10:08:17.706Z,1016.8
2019-03-18T10:09:17.741Z,1016.6
2019-03-18T10:10:17.768Z,1016.6
2019-03-18T10:11:17.754Z,1016.9
2019-03-18T10:12:17.750Z,1016.8
2019-03-18T10:13:17.765Z,1016.8
2019-03-18T10:14:19.602Z,1017
2019-03-18T10:15:17.769Z,1016.9
2019-03-18T10:16:17.794Z,1016.9
2019-03-18T10:17:17.740Z,1016.9
2019-03-18T10:18:17.805Z,1016.9
2019-03-18T10:19:17.797Z,1016.9
2019-03-18T10:20:17.778Z,1016.8
2019-03-18T10:21:17.803Z,1016.8
2019-03-18T10:22:18.815Z,1016.8
2019-03-18T10:23:17.827Z,1016.8
2019-03-18T10:24:17.860Z,1016.9
2019-03-18T10:25:17.827Z,1016.9
2019-03-18T10:26:17.906Z,1016.8
2019-03-18T10:27:17.840Z,1016.8
2019-03-18T10:28:20.064Z,1016.9
2019-03-18T10:29:18.961Z,1016.8
2019-03-18T10:30:17.890Z,1016.8
2019-03-18T10:31:17.857Z,1016.9
2019-03-18T10:32:17.883Z,1016.8
2019-03-18T10:33:17.881Z,1016.8
2019-03-18T10:34:17.860Z,1016.9
2019-03-18T10:35:18.368Z,1016.9
2019-03-18T10:36:17.866Z,1016.9
2019-03-18T10:37:17.923Z,1017.1
2019-03-18T10:38:17.870Z,1017
2019-03-18T10:39:17.881Z,1017
2019-03-18T10:40:17.946Z,1016.9
2019-03-18T10:41:17.865Z,1016.9
2019-03-18T10:42:17.892Z,1016.9
2019-03-18T10:43:17.917Z,1016.8
2019-03-18T10:44:17.904Z,1016.8
2019-03-18T10:45:17.883Z,1016.8
2019-03-18T10:46:17.877Z,1016.9
2019-03-18T10:47:18.003Z,1016.8
2019-03-18T10:48:17.919Z,1016.9
2019-03-18T10:49:17.939Z,1016.9
2019-03-18T10:50:17.889Z,1016.8
2019-03-18T10:51:17.918Z,1016.8
2019-03-18T10:52:17.942Z,1016.9
2019-03-18T10:53:18.014Z,1016.8
2019-03-18T10:54:26.242Z,1017
2019-03-18T10:55:17.934Z,1016.9
2019-03-18T10:56:17.952Z,1016.8
2019-03-18T10:57:17.892Z,1016.8
2019-03-18T10:58:18.269Z,1016.8
2019-03-18T10:59:17.948Z,1016.8
2019-03-18T11:00:17.933Z,1016.8
2019-03-18T11:01:17.956Z,1016.9
2019-03-18T11:02:17.975Z,1016.8
2019-03-18T11:03:17.977Z,1016.9
2019-03-18T11:04:18.001Z,1016.9
2019-03-18T11:05:18.022Z,1016.8
2019-03-18T11:06:18.022Z,1016.9
2019-03-18T11:07:18.017Z,1017
2019-03-18T11:08:17.996Z,1016.9
2019-03-18T11:09:17.989Z,1017
2019-03-18T11:10:18.017Z,1016.9
2019-03-18T11:11:18.076Z,1017
2019-03-18T11:12:17.987Z,1017.1
2019-03-18T11:13:18.008Z,1017.1
2019-03-18T11:14:18.007Z,1017.1
2019-03-18T11:15:18.014Z,1017.2
2019-03-18T11:16:18.021Z,1017.4
2019-03-18T11:17:18.074Z,1017.3
2019-03-18T11:18:18.007Z,1017.2
2019-03-18T11:19:18.029Z,1017.3
2019-03-18T11:20:18.045Z,1017.2
2019-03-18T11:21:17.997Z,1017.2
2019-03-18T11:22:18.109Z,1017.2
2019-03-18T11:23:18.036Z,1017.2
2019-03-18T11:24:18.066Z,1017.2
2019-03-18T11:25:18.109Z,1017.3
2019-03-18T11:26:20.684Z,1017.3
2019-03-18T11:27:18.144Z,1017.2
2019-03-18T11:28:18.101Z,1017.2
2019-03-18T11:29:18.125Z,1017.2
2019-03-18T11:30:18.168Z,1017.2
2019-03-18T11:31:18.131Z,1017.3
2019-03-18T11:32:18.168Z,1017.1
2019-03-18T11:33:18.132Z,1017.1
2019-03-18T11:34:18.663Z,1017.1
2019-03-18T11:35:18.151Z,1017.1
2019-03-18T11:36:18.112Z,1016.9
2019-03-18T11:37:18.108Z,1017
2019-03-18T11:38:18.110Z,1017
2019-03-18T11:39:18.257Z,1017.1
2019-03-18T11:40:18.118Z,1017.1
2019-03-18T11:41:18.152Z,1017
2019-03-18T11:42:18.235Z,1017
2019-03-18T11:43:18.354Z,1016.9
2019-03-18T11:44:18.154Z,1017
2019-03-18T11:45:18.169Z,1017
2019-03-18T11:46:18.182Z,1017
2019-03-18T11:47:18.316Z,1017.2
2019-03-18T11:48:18.193Z,1016.9
2019-03-18T11:49:18.192Z,1017.1
2019-03-18T11:50:18.165Z,1016.9
2019-03-18T11:51:18.204Z,1016.9
2019-03-18T11:52:18.201Z,1016.9
2019-03-18T11:53:18.353Z,1016.8
2019-03-18T11:54:18.278Z,1016.8
2019-03-18T11:55:18.213Z,1016.8
2019-03-18T11:56:18.276Z,1016.8
2019-03-18T11:57:18.236Z,1016.8
2019-03-18T11:58:18.251Z,1016.7
2019-03-18T11:59:20.781Z,1016.8
2019-03-18T12:00:18.234Z,1016.7
2019-03-18T12:01:18.334Z,1016.6
2019-03-18T12:02:27.120Z,1016.8
2019-03-18T12:03:18.336Z,1016.7
2019-03-18T12:04:18.298Z,1016.6
2019-03-18T12:05:18.281Z,1016.6
2019-03-18T12:06:18.278Z,1016.8
2019-03-18T12:07:18.321Z,1016.8
2019-03-18T12:08:18.289Z,1016.8
2019-03-18T12:09:18.329Z,1016.8
2019-03-18T12:10:18.340Z,1016.8
2019-03-18T12:11:18.331Z,1016.8
2019-03-18T12:12:18.415Z,1016.8
2019-03-18T12:13:18.380Z,1016.9
2019-03-18T12:14:18.335Z,1016.8
2019-03-18T12:15:21.264Z,1016.8
2019-03-18T12:16:18.365Z,1016.8
2019-03-18T12:17:18.371Z,1016.9
2019-03-18T12:18:18.414Z,1016.9
2019-03-18T12:19:18.370Z,1016.9
2019-03-18T12:20:24.593Z,1017
2019-03-18T12:21:18.366Z,1017
2019-03-18T12:22:18.462Z,1017
2019-03-18T12:23:18.417Z,1017.1
2019-03-18T12:24:18.480Z,1017.3
2019-03-18T12:25:18.442Z,1017.3
2019-03-18T12:26:18.454Z,1017.2
2019-03-18T12:27:19.505Z,1017.4
2019-03-18T12:28:18.443Z,1017.5
2019-03-18T12:29:18.447Z,1017.4
2019-03-18T12:30:18.430Z,1017.5
2019-03-18T12:31:18.434Z,1017.3
2019-03-18T12:32:19.492Z,1017.4
2019-03-18T12:33:19.490Z,1017.4